Station Historical Data
Daily Summary for July 5, 2017 Units:  English    Metric   Both
« Previous Day
Next Day »
Daily Weekly Monthly Yearly Custom
  High: Low: Average:
Temperature: 89.5 °F 69.7 °F 77.5 °F
Dew Point: 76.9 °F 67.6 °F 71.3 °F
Humidity: 95% 54% 82%
Wind Speed: 7.1mph 0.0mph 5.3mph
Wind Gust: 7.1mph - -
Wind- - SSW
Pressure: 30.16 in 30.09 in -
Precipitation: 0.00 in    
Historical Graphs
 
 
Tabular Data for July 5, 2017
Time Temperature Dew Point Pressure Wind Wind Speed Wind Gust Humidity Rainfall Rate (Hourly) Conditions
00:03 70.4 °F 68.6 °F 30.10 in WNW 7.1 mph   94% 0.00 in BKN
00:08 70.5 °F 68.7 °F 30.10 in WNW 7.1 mph   94% 0.00 in BKN
00:13 70.6 °F 68.8 °F 30.10 in WNW 7.1 mph   94% 0.00 in BKN
00:18 70.6 °F 68.8 °F 30.10 in WNW 7.1 mph   94% 0.00 in SCT
00:23 70.5 °F 68.4 °F 30.10 in WNW 7.1 mph   93% 0.00 in SCT
00:28 70.5 °F 68.4 °F 30.10 in WNW 7.1 mph   93% 0.00 in SCT
00:34 70.5 °F 68.7 °F 30.10 in WNW 7.1 mph   94% 0.00 in SCT
00:39 70.5 °F 68.7 °F 30.10 in WNW 7.1 mph   94% 0.00 in SCT
00:44 70.5 °F 68.4 °F 30.10 in WNW 7.1 mph   93% 0.00 in SCT
00:49 70.4 °F 68.3 °F 30.10 in WNW 7.1 mph   93% 0.00 in SCT
00:54 70.5 °F 68.7 °F 30.10 in WNW 7.1 mph   94% 0.00 in SCT
00:59 70.5 °F 68.7 °F 30.10 in WNW 7.1 mph   94% 0.00 in SCT
01:04 70.6 °F 68.8 °F 30.10 in WNW 7.1 mph   94% 0.00 in SCT
01:09 70.5 °F 68.7 °F 30.10 in WNW 7.1 mph   94% 0.00 in SCT
01:14 70.5 °F 68.7 °F 30.10 in WNW 7.1 mph   94% 0.00 in SCT
01:19 70.5 °F 68.7 °F 30.10 in WNW 7.1 mph   94% 0.00 in FEW
01:24 70.5 °F 68.7 °F 30.10 in WNW 7.1 mph   94% 0.00 in FEW
01:29 70.6 °F 68.8 °F 30.10 in WNW 7.1 mph   94% 0.00 in FEW
01:34 70.6 °F 68.8 °F 30.10 in WNW 7.1 mph   94% 0.00 in FEW
01:39 70.7 °F 68.9 °F 30.10 in WNW 7.1 mph   94% 0.00 in FEW
01:44 70.6 °F 68.8 °F 30.10 in WNW 7.1 mph   94% 0.00 in FEW
01:49 70.6 °F 68.8 °F 30.10 in WNW 7.1 mph   94% 0.00 in FEW
01:54 70.6 °F 68.8 °F 30.10 in WNW 7.1 mph   94% 0.00 in FEW
02:00 70.6 °F 68.8 °F 30.10 in WNW 7.1 mph   94% 0.00 in FEW
02:05 69.8 °F 67.6 °F 30.10 in Calm     93% 0.00 in FEW
02:10 69.7 °F 68.2 °F 30.10 in Calm     95% 0.00 in FEW
02:15 69.7 °F 68.2 °F 30.10 in WNW 7.1 mph   95% 0.00 in FEW
02:20 69.7 °F 68.2 °F 30.10 in North 7.1 mph   95% 0.00 in SCT
02:21 69.7 °F 68.2 °F 30.10 in North 7.1 mph   95% 0.00 in SCT
02:26 69.7 °F 68.2 °F 30.10 in North 7.1 mph   95% 0.00 in SCT
02:31 69.7 °F 68.2 °F 30.10 in North 7.1 mph   95% 0.00 in SCT
02:36 69.7 °F 68.2 °F 30.10 in North 7.1 mph   95% 0.00 in SCT
02:41 69.7 °F 68.2 °F 30.10 in North 7.1 mph   95% 0.00 in SCT
02:46 69.7 °F 68.2 °F 30.10 in North 7.1 mph   95% 0.00 in SCT
02:52 69.7 °F 68.2 °F 30.10 in North 7.1 mph   95% 0.00 in SCT
02:57 69.7 °F 68.2 °F 30.10 in North 7.1 mph   95% 0.00 in SCT
03:02 69.7 °F 68.2 °F 30.10 in North 7.1 mph   95% 0.00 in SCT
03:07 69.7 °F 68.2 °F 30.10 in North 7.1 mph   95% 0.00 in SCT
03:12 69.7 °F 68.2 °F 30.10 in North 7.1 mph   95% 0.00 in SCT
03:17 69.7 °F 68.2 °F 30.10 in North 7.1 mph   95% 0.00 in CLR
03:22 69.7 °F 68.2 °F 30.10 in North 7.1 mph   95% 0.00 in CLR
03:27 69.7 °F 68.2 °F 30.10 in North 7.1 mph   95% 0.00 in CLR
03:32 69.7 °F 68.2 °F 30.10 in North 7.1 mph   95% 0.00 in CLR
03:37 69.7 °F 68.2 °F 30.10 in North 7.1 mph   95% 0.00 in CLR
03:42 69.7 °F 68.2 °F 30.10 in North 7.1 mph   95% 0.00 in CLR
03:47 69.7 °F 68.2 °F 30.10 in North 7.1 mph   95% 0.00 in CLR
03:52 69.7 °F 68.2 °F 30.10 in North 7.1 mph   95% 0.00 in CLR
03:57 69.7 °F 68.2 °F 30.10 in North 7.1 mph   95% 0.00 in CLR
04:03 69.7 °F 68.2 °F 30.10 in North 7.1 mph   95% 0.00 in CLR
04:08 69.7 °F 68.2 °F 30.11 in North 7.1 mph   95% 0.00 in CLR
04:13 69.7 °F 68.2 °F 30.11 in North 7.1 mph   95% 0.00 in CLR
04:18 69.7 °F 68.2 °F 30.11 in North 7.1 mph   95% 0.00 in BKN
04:23 69.7 °F 68.2 °F 30.11 in North 7.1 mph   95% 0.00 in BKN
04:28 69.7 °F 68.2 °F 30.11 in North 7.1 mph   95% 0.00 in BKN
04:33 69.7 °F 68.2 °F 30.11 in North 7.1 mph   95% 0.00 in BKN
04:38 69.7 °F 68.2 °F 30.11 in North 7.1 mph   95% 0.00 in BKN
04:43 69.7 °F 68.2 °F 30.11 in North 7.1 mph   95% 0.00 in BKN
04:48 69.7 °F 68.2 °F 30.11 in North 7.1 mph   95% 0.00 in BKN
04:53 69.7 °F 68.2 °F 30.11 in North 7.1 mph   95% 0.00 in BKN
04:58 69.7 °F 68.2 °F 30.11 in North 7.1 mph   95% 0.00 in BKN
05:03 69.7 °F 68.2 °F 30.11 in North 7.1 mph   95% 0.00 in BKN
05:08 69.7 °F 68.2 °F 30.11 in North 7.1 mph   95% 0.00 in BKN
05:13 69.7 °F 68.2 °F 30.11 in North 7.1 mph   95% 0.00 in BKN
05:18 69.7 °F 68.2 °F 30.11 in North 7.1 mph   95% 0.00 in CLR
05:23 69.7 °F 68.2 °F 30.11 in North 7.1 mph   95% 0.00 in CLR
05:29 69.7 °F 68.2 °F 30.11 in North 7.1 mph   95% 0.00 in CLR
05:34 69.7 °F 68.2 °F 30.11 in North 7.1 mph   95% 0.00 in CLR
05:39 69.7 °F 68.2 °F 30.11 in North 7.1 mph   95% 0.00 in CLR
05:44 69.7 °F 68.2 °F 30.11 in North 7.1 mph   95% 0.00 in CLR
05:49 69.7 °F 68.2 °F 30.11 in North 7.1 mph   95% 0.00 in CLR
05:54 69.7 °F 68.2 °F 30.12 in North 7.1 mph   95% 0.00 in CLR
05:59 69.7 °F 68.2 °F 30.12 in North 7.1 mph   95% 0.00 in CLR
06:03 69.7 °F 68.2 °F 30.12 in North 7.1 mph   95% 0.00 in CLR
06:08 69.7 °F 68.2 °F 30.12 in North 7.1 mph   95% 0.00 in CLR
06:13 69.7 °F 68.2 °F 30.12 in North 7.1 mph   95% 0.00 in CLR
06:18 69.7 °F 68.2 °F 30.12 in North 7.1 mph   95% 0.00 in CLR
06:23 69.7 °F 68.2 °F 30.12 in North 7.1 mph   95% 0.00 in CLR
06:28 69.7 °F 68.2 °F 30.12 in North 7.1 mph   95% 0.00 in CLR
06:33 69.7 °F 68.2 °F 30.13 in North 7.1 mph   95% 0.00 in CLR
06:38 69.7 °F 68.2 °F 30.13 in North 7.1 mph   95% 0.00 in CLR
06:43 69.7 °F 68.2 °F 30.13 in North 7.1 mph   95% 0.00 in CLR
06:48 69.7 °F 68.2 °F 30.13 in North 7.1 mph   95% 0.00 in CLR
06:53 69.7 °F 68.2 °F 30.13 in North 7.1 mph   95% 0.00 in CLR
06:58 69.7 °F 68.2 °F 30.13 in North 7.1 mph   95% 0.00 in CLR
07:03 69.7 °F 68.2 °F 30.13 in North 7.1 mph   95% 0.00 in CLR
07:08 69.7 °F 68.2 °F 30.13 in North 7.1 mph   95% 0.00 in CLR
07:13 69.7 °F 68.2 °F 30.13 in North 7.1 mph   95% 0.00 in CLR
07:19 69.7 °F 68.2 °F 30.13 in North 7.1 mph   95% 0.00 in FEW
07:24 69.7 °F 68.2 °F 30.13 in North 7.1 mph   95% 0.00 in FEW
07:25 88.7 °F 69.9 °F 30.11 in Calm   1.0 mph 54% 0.00 in
07:29 69.7 °F 68.2 °F 30.13 in North 7.1 mph   95% 0.00 in FEW
07:34 69.7 °F 68.2 °F 30.13 in North 7.1 mph   95% 0.00 in FEW
07:39 69.7 °F 68.2 °F 30.13 in North 7.1 mph   95% 0.00 in FEW
07:44 69.7 °F 68.2 °F 30.14 in North 7.1 mph   95% 0.00 in FEW
07:49 69.7 °F 68.2 °F 30.14 in North 7.1 mph   95% 0.00 in FEW
07:54 69.7 °F 68.2 °F 30.14 in North 7.1 mph   95% 0.00 in FEW
07:59 69.7 °F 68.2 °F 30.14 in North 7.1 mph   95% 0.00 in FEW
08:04 69.7 °F 68.2 °F 30.14 in North 7.1 mph   95% 0.00 in FEW
08:09 69.7 °F 68.2 °F 30.14 in North 7.1 mph   95% 0.00 in FEW
08:14 72.2 °F 70.4 °F 30.14 in WNW 7.1 mph   94% 0.00 in FEW
08:19 72.5 °F 70.7 °F 30.14 in WNW 7.1 mph   94% 0.00 in CLR
08:24 72.7 °F 70.9 °F 30.14 in WNW 7.1 mph   94% 0.00 in CLR
08:29 73.0 °F 71.2 °F 30.14 in WNW 7.1 mph   94% 0.00 in CLR
08:34 73.2 °F 71.4 °F 30.14 in WNW 7.1 mph   94% 0.00 in CLR
08:39 73.5 °F 71.7 °F 30.14 in WNW 7.1 mph   94% 0.00 in CLR
08:44 73.9 °F 72.1 °F 30.14 in WNW 7.1 mph   94% 0.00 in CLR
08:46 74.1 °F 72.3 °F 30.14 in WNW 7.1 mph   94% 0.00 in CLR
08:51 74.5 °F 72.7 °F 30.14 in WNW 7.1 mph   94% 0.00 in CLR
08:56 75.0 °F 73.2 °F 30.15 in WNW 7.1 mph   94% 0.00 in CLR
09:02 75.5 °F 73.7 °F 30.14 in WNW 7.1 mph   94% 0.00 in CLR
09:07 75.9 °F 74.0 °F 30.14 in WNW 7.1 mph   94% 0.00 in CLR
09:12 76.2 °F 74.3 °F 30.15 in WNW 7.1 mph   94% 0.00 in CLR
09:17 76.5 °F 74.6 °F 30.15 in WNW 7.1 mph   94% 0.00 in FEW
09:22 76.5 °F 74.6 °F 30.15 in WNW 7.1 mph   94% 0.00 in FEW
09:24 76.6 °F 74.7 °F 30.15 in WNW 7.1 mph   94% 0.00 in FEW
09:29 77.0 °F 75.1 °F 30.15 in WNW 7.1 mph   94% 0.00 in FEW
09:34 77.0 °F 75.1 °F 30.15 in WNW 7.1 mph   94% 0.00 in FEW
09:39 77.0 °F 75.1 °F 30.15 in WNW 7.1 mph   94% 0.00 in FEW
09:44 77.0 °F 75.1 °F 30.15 in SSW 7.1 mph   94% 0.00 in FEW
09:49 77.4 °F 75.5 °F 30.15 in West 7.1 mph 7.1 mph 94% 0.00 in FEW
09:54 78.0 °F 75.8 °F 30.15 in West 7.1 mph   93% 0.00 in FEW
09:58 78.3 °F 75.5 °F 30.15 in WNW 7.1 mph 7.1 mph 91% 0.00 in FEW
10:03 79.0 °F 75.5 °F 30.15 in WNW 7.1 mph 7.1 mph 89% 0.00 in FEW
10:08 79.7 °F 75.5 °F 30.15 in WSW 7.1 mph 7.1 mph 87% 0.00 in FEW
10:13 80.3 °F 75.0 °F 30.15 in NNW 7.1 mph 7.1 mph 84% 0.00 in FEW
10:18 81.1 °F 76.2 °F 30.15 in NW 7.1 mph 7.1 mph 85% 0.00 in FEW
10:23 81.9 °F 76.9 °F 30.15 in NW 7.1 mph   85% 0.00 in FEW
10:28 82.4 °F 76.0 °F 30.15 in NW 7.1 mph   81% 0.00 in FEW
10:33 82.8 °F 76.0 °F 30.15 in WSW 7.1 mph 7.1 mph 80% 0.00 in FEW
10:39 83.0 °F 75.8 °F 30.16 in WSW 7.1 mph   79% 0.00 in FEW
10:44 83.2 °F 76.0 °F 30.16 in WSW 7.1 mph 7.1 mph 79% 0.00 in FEW
10:49 83.4 °F 76.2 °F 30.15 in West 7.1 mph   79% 0.00 in FEW
10:54 83.3 °F 75.3 °F 30.15 in South 7.1 mph   77% 0.00 in FEW
10:59 83.2 °F 76.0 °F 30.15 in West 7.1 mph   79% 0.00 in FEW
11:04 83.2 °F 76.4 °F 30.15 in West 7.1 mph   80% 0.00 in FEW
11:09 83.3 °F 75.3 °F 30.15 in NW 7.1 mph   77% 0.00 in FEW
11:14 83.4 °F 75.8 °F 30.15 in ESE 7.1 mph   78% 0.00 in FEW
11:19 83.6 °F 75.2 °F 30.15 in SW 7.1 mph 7.1 mph 76% 0.00 in FEW
11:24 84.0 °F 76.0 °F 30.15 in WNW 7.1 mph   77% 0.00 in FEW
11:29 84.0 °F 74.8 °F 30.15 in WSW 7.1 mph   74% 0.00 in FEW
11:34 84.0 °F 74.8 °F 30.15 in ENE 7.1 mph 7.1 mph 74% 0.00 in FEW
11:39 84.1 °F 74.9 °F 30.15 in NNW 7.1 mph 7.1 mph 74% 0.00 in FEW
11:44 84.4 °F 75.2 °F 30.15 in SW 7.1 mph   74% 0.00 in FEW
11:49 84.7 °F 75.1 °F 30.15 in NW 7.1 mph   73% 0.00 in FEW
11:54 85.0 °F 75.0 °F 30.15 in NNW 7.1 mph 7.1 mph 72% 0.00 in FEW
11:59 85.5 °F 76.3 °F 30.15 in NW 7.1 mph   74% 0.00 in FEW
12:04 85.7 °F 75.2 °F 30.15 in NW 7.1 mph   71% 0.00 in FEW
12:09 85.5 °F 75.0 °F 30.15 in NNW 7.1 mph   71% 0.00 in FEW
12:14 84.9 °F 74.4 °F 30.15 in SW 7.1 mph 7.1 mph 71% 0.00 in FEW
12:15 85.0 °F 74.9 °F 30.15 in Calm   2.0 mph 72% 0.00 in FEW
12:20 84.8 °F 75.6 °F 30.15 in Calm   1.0 mph 74% 0.00 in BKN
12:25 85.1 °F 75.1 °F 30.15 in NW 7.1 mph   72% 0.00 in BKN
12:30 85.7 °F 74.4 °F 30.14 in Calm   1.0 mph 69% 0.00 in BKN
12:35 86.4 °F 74.6 °F 30.14 in Calm     68% 0.00 in BKN
12:40 86.7 °F 72.6 °F 30.14 in Calm   2.0 mph 63% 0.00 in BKN
12:45 87.3 °F 75.0 °F 30.14 in Calm   1.0 mph 67% 0.00 in BKN
12:50 88.1 °F 75.3 °F 30.14 in Calm   1.0 mph 66% 0.00 in BKN
12:55 88.8 °F 76.0 °F 30.14 in Calm   2.0 mph 66% 0.00 in BKN
13:00 89.4 °F 74.7 °F 30.13 in SW 7.1 mph   62% 0.00 in BKN
13:05 89.5 °F 74.3 °F 30.13 in Calm   2.0 mph 61% 0.00 in BKN
13:10 89.2 °F 73.5 °F 30.13 in Calm   1.0 mph 60% 0.00 in BKN
13:15 88.8 °F 74.6 °F 30.13 in Calm     63% 0.00 in BKN
13:20 88.5 °F 74.8 °F 30.13 in Calm   1.0 mph 64% 0.00 in BKN
13:25 88.8 °F 75.5 °F 30.13 in Calm   3.0 mph 65% 0.00 in BKN
13:30 89.2 °F 74.5 °F 30.13 in Calm   1.0 mph 62% 0.00 in BKN
13:35 88.9 °F 73.3 °F 30.13 in Calm   1.0 mph 60% 0.00 in BKN
13:40 88.3 °F 73.2 °F 30.13 in Calm   1.0 mph 61% 0.00 in BKN
13:45 88.1 °F 73.4 °F 30.13 in Calm   1.0 mph 62% 0.00 in BKN
13:50 88.4 °F 74.2 °F 30.13 in Calm   1.0 mph 63% 0.00 in BKN
13:55 88.8 °F 73.6 °F 30.13 in SE 7.1 mph   61% 0.00 in BKN
14:00 89.1 °F 73.4 °F 30.13 in Calm   1.0 mph 60% 0.00 in BKN
14:05 89.1 °F 74.8 °F 30.13 in Calm     63% 0.00 in BKN
14:10 88.8 °F 73.6 °F 30.12 in Calm   3.0 mph 61% 0.00 in BKN
14:15 89.1 °F 73.9 °F 30.12 in Calm     61% 0.00 in BKN
14:20 89.2 °F 74.0 °F 30.12 in SSE 1.0 mph 2.0 mph 61% 0.00 in BKN
14:25 88.8 °F 74.6 °F 30.11 in Calm   1.0 mph 63% 0.00 in BKN
14:30 88.9 °F 73.2 °F 30.11 in Calm   1.0 mph 60% 0.00 in BKN
14:35 89.0 °F 73.3 °F 30.11 in Calm   1.0 mph 60% 0.00 in BKN
14:40 88.7 °F 74.5 °F 30.11 in Calm   1.0 mph 63% 0.00 in BKN
14:41 88.6 °F 71.9 °F 30.11 in NE 7.1 mph   58% 0.00 in BKN
14:46 88.3 °F 72.7 °F 30.11 in NE 7.1 mph 7.1 mph 60% 0.00 in BKN
14:50 88.3 °F 73.1 °F 30.11 in NE 7.1 mph   61% 0.00 in BKN
14:55 88.3 °F 74.1 °F 30.11 in NNW 7.1 mph   63% 0.00 in BKN
15:00 88.4 °F 72.7 °F 30.11 in SW 7.1 mph 7.1 mph 60% 0.00 in BKN
15:05 88.4 °F 71.7 °F 30.11 in WNW 7.1 mph   58% 0.00 in BKN
15:10 88.5 °F 74.3 °F 30.11 in NW 7.1 mph   63% 0.00 in BKN
15:15 88.7 °F 73.0 °F 30.11 in NW 7.1 mph   60% 0.00 in BKN
15:20 88.7 °F 73.0 °F 30.11 in NNW 7.1 mph   60% 0.00 in BKN
15:27 88.7 °F 71.5 °F 30.11 in North 1.0 mph   57% 0.00 in BKN
15:33 88.5 °F 70.8 °F 30.11 in NNW 1.2 mph   56% 0.00 in BKN
15:38 88.5 °F 72.3 °F 30.11 in North 1.2 mph   59% 0.00 in BKN
15:43 88.3 °F 71.1 °F 30.10 in NNW 1.2 mph 1.2 mph 57% 0.00 in BKN
15:48 87.7 °F 70.6 °F 30.10 in WNW 1.2 mph 1.2 mph 57% 0.00 in BKN
15:53 87.2 °F 72.1 °F 30.10 in ENE 1.2 mph   61% 0.00 in BKN
15:58 86.7 °F 72.1 °F 30.10 in ENE 1.2 mph   62% 0.00 in BKN
16:03 86.3 °F 73.6 °F 30.10 in ENE 1.2 mph 1.2 mph 66% 0.00 in BKN
16:08 86.5 °F 74.2 °F 30.10 in ENE 1.2 mph   67% 0.00 in BKN
16:13 87.0 °F 72.9 °F 30.10 in ENE 1.2 mph 1.2 mph 63% 0.00 in BKN
16:18 87.4 °F 72.8 °F 30.10 in SSW 3.1 mph 3.1 mph 62% 0.00 in BKN
16:23 87.4 °F 72.8 °F 30.10 in SSW 3.5 mph   62% 0.00 in BKN
16:28 87.3 °F 73.6 °F 30.11 in SSW 3.5 mph   64% 0.00 in BKN
16:33 86.7 °F 73.5 °F 30.11 in NW 3.5 mph   65% 0.00 in BKN
16:38 86.1 °F 74.3 °F 30.12 in NW 3.5 mph   68% 0.00 in BKN
16:44 85.7 °F 74.4 °F 30.12 in NW 3.5 mph   69% 0.00 in BKN
16:49 85.4 °F 74.5 °F 30.12 in NW 3.5 mph   70% 0.00 in BKN
16:52 85.1 °F 73.8 °F 30.12 in WNW 3.5 mph   69% 0.00 in BKN
16:57 84.8 °F 73.9 °F 30.12 in West 3.5 mph 3.5 mph 70% 0.00 in BKN
17:02 84.6 °F 72.9 °F 30.11 in WSW 3.5 mph 3.5 mph 68% 0.00 in BKN
17:07 84.5 °F 72.3 °F 30.12 in WSW 3.5 mph   67% 0.00 in BKN
17:12 84.3 °F 72.6 °F 30.12 in West 3.5 mph   68% 0.00 in BKN
17:18 84.3 °F 72.6 °F 30.12 in West 3.5 mph   68% 0.00 in -RA
17:23 84.2 °F 72.5 °F 30.11 in West 3.5 mph   68% 0.00 in -RA
17:28 84.2 °F 72.9 °F 30.11 in West 3.5 mph   69% 0.00 in OVC
17:33 84.4 °F 73.1 °F 30.11 in West 3.5 mph   69% 0.00 in OVC
17:38 84.6 °F 72.9 °F 30.11 in West 3.5 mph   68% 0.00 in OVC
17:43 84.6 °F 72.9 °F 30.11 in West 3.5 mph   68% 0.00 in OVC
17:48 84.4 °F 73.1 °F 30.11 in West 3.5 mph   69% 0.00 in BKN
17:53 84.4 °F 73.1 °F 30.11 in West 3.5 mph   69% 0.00 in BKN
17:58 84.4 °F 72.2 °F 30.10 in SW 3.5 mph 3.5 mph 67% 0.00 in BKN
18:03 84.5 °F 74.1 °F 30.11 in East 3.5 mph   71% 0.00 in BKN
18:08 84.5 °F 73.2 °F 30.10 in East 3.5 mph   69% 0.00 in BKN
18:13 84.4 °F 72.7 °F 30.10 in East 3.5 mph   68% 0.00 in BKN
18:18 84.2 °F 72.5 °F 30.10 in East 3.5 mph   68% 0.00 in BKN
18:23 84.0 °F 72.3 °F 30.10 in East 3.5 mph   68% 0.00 in BKN
18:29 83.7 °F 72.4 °F 30.10 in North 3.5 mph   69% 0.00 in BKN
18:34 83.6 °F 72.8 °F 30.10 in WSW 3.5 mph 3.5 mph 70% 0.00 in BKN
18:39 83.4 °F 72.6 °F 30.10 in WSW 3.5 mph   70% 0.00 in BKN
18:44 83.4 °F 73.0 °F 30.10 in WSW 3.5 mph   71% 0.00 in BKN
18:49 83.3 °F 73.7 °F 30.10 in WSW 3.5 mph   73% 0.00 in BKN
18:54 83.1 °F 73.5 °F 30.10 in WSW 3.5 mph   73% 0.00 in BKN
18:59 83.0 °F 73.9 °F 30.10 in WSW 3.5 mph   74% 0.00 in BKN
19:04 82.8 °F 74.1 °F 30.11 in SSW 5.1 mph 5.1 mph 75% 0.00 in BKN
19:09 82.3 °F 72.4 °F 30.11 in WNW 5.1 mph 5.1 mph 72% 0.00 in BKN
19:15 81.6 °F 71.7 °F 30.11 in NW 5.1 mph   72% 0.00 in BKN
19:20 81.0 °F 71.5 °F 30.11 in NNW 5.1 mph   73% 0.00 in BKN
19:25 80.4 °F 70.5 °F 30.11 in NNW 5.1 mph   72% 0.00 in BKN
19:30 79.9 °F 70.5 °F 30.10 in NNW 5.1 mph   73% 0.00 in -RA
19:35 79.4 °F 70.4 °F 30.10 in NNW 5.1 mph   74% 0.00 in -RA
19:40 79.0 °F 70.8 °F 30.10 in NNW 5.1 mph   76% 0.00 in -RA
19:45 78.6 °F 71.2 °F 30.09 in NNW 5.1 mph   78% 0.00 in BKN
19:50 78.3 °F 71.2 °F 30.09 in NNW 5.1 mph   79% 0.00 in BKN
19:55 77.8 °F 71.5 °F 30.10 in NNW 5.1 mph   81% 0.00 in BKN
20:00 77.3 °F 71.4 °F 30.10 in NNW 5.1 mph   82% 0.00 in BKN
20:06 76.8 °F 71.6 °F 30.10 in North 5.1 mph   84% 0.00 in BKN
20:11 76.6 °F 71.4 °F 30.11 in North 5.1 mph   84% 0.00 in BKN
20:16 76.4 °F 71.6 °F 30.11 in North 5.1 mph   85% 0.00 in BKN
20:19 76.4 °F 71.6 °F 30.11 in North 5.1 mph   85% 0.00 in BKN
20:24 76.3 °F 71.5 °F 30.11 in North 5.1 mph   85% 0.00 in BKN
20:29 76.2 °F 71.7 °F 30.11 in North 5.1 mph   86% 0.00 in BKN
20:34 76.0 °F 71.2 °F 30.11 in North 5.1 mph   85% 0.00 in BKN
20:39 75.9 °F 71.1 °F 30.11 in North 5.1 mph   85% 0.00 in BKN
20:44 75.8 °F 71.3 °F 30.11 in North 5.1 mph   86% 0.00 in BKN
20:49 75.6 °F 71.1 °F 30.11 in North 5.1 mph   86% 0.00 in BKN
20:54 75.4 °F 70.9 °F 30.10 in North 5.1 mph   86% 0.00 in BKN
20:59 75.3 °F 70.8 °F 30.10 in North 5.1 mph   86% 0.00 in BKN
21:04 75.3 °F 71.2 °F 30.10 in North 5.1 mph   87% 0.00 in BKN
21:08 75.2 °F 70.7 °F 30.10 in North 5.1 mph   86% 0.00 in BKN
21:13 75.2 °F 70.7 °F 30.10 in North 5.1 mph   86% 0.00 in BKN
21:18 75.2 °F 70.7 °F 30.10 in North 5.1 mph   86% 0.00 in OVC
21:23 75.1 °F 70.6 °F 30.10 in North 5.1 mph   86% 0.00 in OVC
21:28 75.0 °F 70.5 °F 30.10 in North 5.1 mph   86% 0.00 in OVC
21:33 74.9 °F 70.4 °F 30.10 in North 5.1 mph   86% 0.00 in OVC
21:38 74.9 °F 70.4 °F 30.10 in North 5.1 mph   86% 0.00 in OVC
21:43 74.7 °F 70.2 °F 30.10 in North 5.1 mph   86% 0.00 in OVC
21:48 74.6 °F 70.1 °F 30.10 in North 5.1 mph   86% 0.00 in OVC
21:53 74.5 °F 70.0 °F 30.10 in North 5.1 mph   86% 0.00 in OVC
21:58 74.4 °F 70.3 °F 30.10 in North 5.1 mph   87% 0.00 in OVC
22:04 74.2 °F 70.1 °F 30.10 in North 5.1 mph   87% 0.00 in OVC
22:09 74.0 °F 69.5 °F 30.10 in North 5.1 mph   86% 0.00 in OVC
22:14 74.0 °F 69.9 °F 30.11 in North 5.1 mph   87% 0.00 in OVC
22:19 73.9 °F 69.4 °F 30.11 in North 5.1 mph   86% 0.00 in OVC
22:24 73.7 °F 69.2 °F 30.11 in North 5.1 mph   86% 0.00 in OVC
22:29 73.7 °F 69.6 °F 30.12 in North 5.1 mph   87% 0.00 in BKN
22:34 73.6 °F 69.5 °F 30.12 in North 5.1 mph   87% 0.00 in BKN
22:39 73.5 °F 69.4 °F 30.12 in North 5.1 mph   87% 0.00 in BKN
22:44 73.4 °F 69.3 °F 30.12 in North 5.1 mph   87% 0.00 in BKN
22:49 73.3 °F 69.2 °F 30.12 in North 5.1 mph   87% 0.00 in BKN
22:54 73.2 °F 69.1 °F 30.12 in North 5.1 mph   87% 0.00 in BKN
22:59 73.1 °F 69.3 °F 30.11 in North 5.1 mph   88% 0.00 in BKN
23:04 73.1 °F 69.3 °F 30.11 in North 5.1 mph   88% 0.00 in BKN
23:09 73.1 °F 69.3 °F 30.11 in North 5.1 mph   88% 0.00 in BKN
23:14 73.0 °F 69.2 °F 30.11 in North 5.1 mph   88% 0.00 in BKN
23:20 72.9 °F 69.5 °F 30.11 in North 5.1 mph   89% 0.00 in BKN
23:25 72.9 °F 69.5 °F 30.12 in North 5.1 mph   89% 0.00 in BKN
23:30 73.0 °F 69.6 °F 30.12 in North 5.1 mph   89% 0.00 in BKN
23:35 73.0 °F 69.6 °F 30.12 in Calm     89% 0.00 in BKN
23:40 73.0 °F 69.9 °F 30.11 in Calm     90% 0.00 in BKN
23:45 73.0 °F 69.9 °F 30.12 in North 5.1 mph   90% 0.00 in BKN
23:50 73.0 °F 69.9 °F 30.12 in Calm     90% 0.00 in BKN
23:55 73.0 °F 69.9 °F 30.12 in Calm     90% 0.00 in BKN
Piedmont Bend
Compliments of Weather Underground - 2 mb